UDD weather

Bermuda Dunes Airport
Palm Springs, California, United States

Public forecast

Using degrees Fahrenheit for public forecast. Weather courtesy of forecast.io.

Closest aviation weather report (METAR) to Bermuda Dunes Airport

Closest report is Jacqueline Cochran Regional Airport, 9.3 nm (17.2 km) SE. Retrieved 2019/12/12 07:52 UTC (13 minutes ago):

KTRM 120752Z AUTO 33004KT 10SM CLR 09/04 A3017 RMK AO2 SLP217 T00890044 402280039

Closest aviation forecast (TAF) to Bermuda Dunes Airport

Closest forecast is Jacqueline Cochran Regional Airport, 9.3 nm (17.2 km) SE. Retrieved 2019/12/12 06:22 UTC (2 hours ago):

TAF KTRM 120520Z 1206/1306 VRB04KT P6SM BKN250